| time (UTC) | temp F | wind direction | speed MPH | gust MPH | rain 1hr in | rain 24hr in | rain mn in | humidity % | barometer mb |
| 20260510234537 | 85 | 65 | 3.0 | 7.0 | 0.00 | 0.00 | 0.00 | 61 | 1011.7 |
| 20260510233034 | 86 | 37 | 3.0 | 11.0 | 0.00 | 0.00 | 0.00 | 60 | 1011.1 |
| 20260510231532 | 86 | 53 | 3.0 | 9.0 | 0.00 | 0.00 | 0.00 | 58 | 1011.3 |
| 20260510230044 | 86 | 70 | 5.0 | 10.0 | 0.00 | 0.00 | 0.00 | 58 | 1011.6 |
| 20260510224541 | 89 | 54 | 2.0 | 4.0 | 0.00 | 0.00 | 0.00 | 55 | 1011.1 |
| 20260510223038 | 88 | 45 | 4.0 | 9.0 | 0.00 | 0.00 | 0.00 | 56 | 1010.6 |
| 20260510221533 | 88 | 96 | 2.0 | 8.0 | 0.00 | 0.00 | 0.00 | 56 | 1010.5 |
| 20260510220033 | 87 | 48 | 3.0 | 11.0 | 0.00 | 0.00 | 0.00 | 56 | 1010.8 |
| 20260510214536 | 87 | 65 | 3.0 | 9.0 | 0.00 | 0.00 | 0.00 | 57 | 1011.0 |
| 20260510213038 | 88 | 67 | 5.0 | 10.0 | 0.00 | 0.00 | 0.00 | 56 | 1011.3 |
| 20260510211536 | 88 | 58 | 4.0 | 8.0 | 0.00 | 0.00 | 0.00 | 55 | 1011.5 |
| 20260510210033 | 87 | 53 | 3.0 | 9.0 | 0.00 | 0.00 | 0.00 | 55 | 1011.9 |
| 20260510204537 | 89 | 39 | 3.0 | 7.0 | 0.00 | 0.00 | 0.00 | 56 | 1011.9 |
| 20260510203032 | 89 | 318 | 3.0 | 10.0 | 0.00 | 0.00 | 0.00 | 57 | 1011.8 |
| 20260510201536 | 90 | 204 | 2.0 | 7.0 | 0.00 | 0.00 | 0.00 | 51 | 1011.8 |
| 20260510200104 | 90 | 0 | 2.0 | 8.0 | 0.00 | 0.00 | 0.00 | 50 | 1011.9 |
| 20260510194543 | 90 | 75 | 0.0 | 9.0 | 0.00 | 0.00 | 0.00 | 54 | 1011.9 |
| 20260510193041 | 89 | 63 | 2.0 | 7.0 | 0.00 | 0.00 | 0.00 | 57 | 1012.0 |
| 20260510191532 | 89 | 0 | 1.0 | 7.0 | 0.00 | 0.00 | 0.00 | 54 | 1012.1 |
| 20260510190033 | 89 | 0 | 0.0 | 6.0 | 0.00 | 0.00 | 0.00 | 55 | 1012.4 |
| 20260510184537 | 89 | 44 | 2.0 | 6.0 | 0.00 | 0.00 | 0.00 | 55 | 1012.4 |
| 20260510183042 | 89 | 165 | 0.0 | 7.0 | 0.00 | 0.00 | 0.00 | 59 | 1012.3 |
| 20260510181533 | 88 | 44 | 1.0 | 6.0 | 0.00 | 0.00 | 0.00 | 58 | 1012.4 |
| 20260510180039 | 87 | 72 | 3.0 | 6.0 | 0.00 | 0.00 | 0.00 | 63 | 1012.6 |
| 20260510174543 | 87 | 63 | 0.0 | 3.0 | 0.00 | 0.00 | 0.00 | 62 | 1012.9 |
| 20260510173033 | 86 | 219 | 0.0 | 4.0 | 0.00 | 0.00 | 0.00 | 62 | 1013.1 |
| 20260510171537 | 85 | 50 | 0.0 | 7.0 | 0.00 | 0.00 | 0.00 | 66 | 1013.5 |
| 20260510170032 | 85 | 46 | 2.0 | 7.0 | 0.00 | 0.00 | 0.00 | 64 | 1013.7 |
| 20260510164542 | 83 | 0 | 0.0 | 10.0 | 0.00 | 0.00 | 0.00 | 68 | 1013.6 |
| 20260510163038 | 83 | 53 | 2.0 | 8.0 | 0.00 | 0.00 | 0.00 | 69 | 1013.6 |
| 20260510161538 | 82 | 66 | 3.0 | 7.0 | 0.00 | 0.00 | 0.00 | 69 | 1013.6 |
| 20260510160036 | 82 | 257 | 1.0 | 6.0 | 0.00 | 0.00 | 0.00 | 70 | 1013.5 |
| 20260510154540 | 81 | 39 | 0.0 | 6.0 | 0.00 | 0.00 | 0.00 | 74 | 1013.6 |
| 20260510153039 | 80 | 0 | 0.0 | 7.0 | 0.00 | 0.00 | 0.00 | 75 | 1013.6 |
| 20260510151537 | 78 | 63 | 2.0 | 4.0 | 0.00 | 0.00 | 0.00 | 76 | 1013.3 |
| 20260510150041 | 77 | 8 | 1.0 | 6.0 | 0.00 | 0.00 | 0.00 | 79 | 1013.3 |
| 20260510144536 | 76 | 58 | 4.0 | 7.0 | 0.00 | 0.00 | 0.00 | 78 | 1013.4 |
| 20260510143036 | 76 | 59 | 4.0 | 10.0 | 0.00 | 0.00 | 0.00 | 78 | 1013.2 |
| 20260510141533 | 76 | 60 | 2.0 | 5.0 | 0.00 | 0.00 | 0.00 | 77 | 1013.0 |
| 20260510140031 | 76 | 0 | 0.0 | 6.0 | 0.00 | 0.00 | 0.00 | 77 | 1012.8 |
| 20260510134532 | 76 | 0 | 0.0 | 3.0 | 0.00 | 0.00 | 0.00 | 76 | 1012.5 |
| 20260510133039 | 75 | 0 | 0.0 | 6.0 | 0.00 | 0.00 | 0.00 | 76 | 1012.4 |
| 20260510131533 | 76 | 0 | 0.0 | 0.0 | 0.00 | 0.00 | 0.00 | 73 | 1011.9 |
| 20260510130033 | 75 | 0 | 0.0 | 0.0 | 0.00 | 0.00 | 0.00 | 75 | 1011.6 |
| 20260510124534 | 74 | 0 | 0.0 | 0.0 | 0.00 | 0.01 | 0.00 | 76 | 1011.3 |
| 20260510123054 | 73 | 0 | 0.0 | 0.0 | 0.00 | 0.01 | 0.00 | 82 | 1011.1 |
| 20260510121532 | 70 | 0 | 0.0 | 0.0 | 0.00 | 0.01 | 0.00 | 85 | 1011.2 |
| 20260510120034 | 68 | 0 | 0.0 | 0.0 | 0.00 | 0.01 | 0.00 | 87 | 1011.0 |
| 20260510114535 | 68 | 0 | 0.0 | 0.0 | 0.00 | 0.01 | 0.00 | 85 | 1010.7 |
| 20260510113041 | 69 | 0 | 0.0 | 0.0 | 0.00 | 0.01 | 0.00 | 85 | 1010.8 |
| 20260510111533 | 69 | 0 | 0.0 | 0.0 | 0.00 | 0.01 | 0.00 | 84 | 1010.7 |
| 20260510110034 | 69 | 212 | 0.0 | 1.0 | 0.00 | 0.01 | 0.00 | 84 | 1010.6 |
| 20260510104532 | 69 | 0 | 0.0 | 1.0 | 0.00 | 0.01 | 0.00 | 84 | 1010.7 |
| 20260510103033 | 69 | 0 | 0.0 | 0.0 | 0.00 | 0.01 | 0.00 | 85 | 1010.6 |
| 20260510101532 | 70 | 0 | 0.0 | 2.0 | 0.00 | 0.01 | 0.00 | 84 | 1010.4 |
| 20260510100032 | 70 | 0 | 0.0 | 0.0 | 0.00 | 0.01 | 0.00 | 85 | 1010.1 |
| 20260510094533 | 70 | 0 | 0.0 | 0.0 | 0.00 | 0.01 | 0.00 | 85 | 1010.4 |
| 20260510093032 | 71 | 0 | 0.0 | 2.0 | 0.00 | 0.01 | 0.00 | 84 | 1010.0 |
| 20260510091533 | 71 | 0 | 0.0 | 2.0 | 0.00 | 0.01 | 0.00 | 84 | 1010.1 |
| 20260510090033 | 71 | 177 | 0.0 | 3.0 | 0.00 | 0.01 | 0.00 | 84 | 1009.8 |
| 20260510084540 | 71 | 0 | 0.0 | 3.0 | 0.00 | 0.01 | 0.00 | 84 | 1010.0 |
| 20260510083033 | 71 | 0 | 0.0 | 4.0 | 0.00 | 0.01 | 0.00 | 85 | 1010.2 |
| 20260510081540 | 71 | 214 | 0.0 | 2.0 | 0.00 | 0.01 | 0.00 | 86 | 1010.5 |
| 20260510080033 | 71 | 0 | 0.0 | 0.0 | 0.00 | 0.01 | 0.00 | 85 | 1010.6 |
| 20260510074533 | 71 | 0 | 0.0 | 1.0 | 0.00 | 0.01 | 0.00 | 85 | 1010.7 |
| 20260510073035 | 71 | 0 | 0.0 | 1.0 | 0.00 | 0.01 | 0.00 | 85 | 1010.5 |
| 20260510071531 | 72 | 0 | 0.0 | 1.0 | 0.00 | 0.01 | 0.00 | 84 | 1010.5 |
| 20260510070034 | 72 | 0 | 0.0 | 1.0 | 0.00 | 0.01 | 0.00 | 83 | 1010.5 |
| 20260510064541 | 73 | 0 | 0.0 | 0.0 | 0.00 | 0.01 | 0.00 | 83 | 1010.5 |
| 20260510063039 | 73 | 0 | 0.0 | 0.0 | 0.00 | 0.01 | 0.00 | 81 | 1010.4 |
| 20260510061532 | 74 | 0 | 0.0 | 1.0 | 0.00 | 0.01 | 0.00 | 81 | 1010.4 |
| 20260510060033 | 74 | 0 | 0.0 | 1.0 | 0.00 | 0.01 | 0.00 | 81 | 1010.5 |
| 20260510054533 | 74 | 0 | 0.0 | 1.0 | 0.00 | 0.01 | 0.00 | 81 | 1010.5 |
| 20260510053036 | 74 | 0 | 0.0 | 0.0 | 0.00 | 0.01 | 0.00 | 81 | 1010.4 |
| 20260510051537 | 75 | 0 | 0.0 | 0.0 | 0.00 | 0.01 | 0.00 | 81 | 1010.4 |
| 20260510050032 | 75 | 0 | 0.0 | 0.0 | 0.00 | 0.01 | 0.00 | 81 | 1010.3 |
| 20260510044544 | 75 | 0 | 0.0 | 0.0 | 0.00 | 0.01 | 0.01 | 81 | 1010.3 |
| 20260510043035 | 76 | 0 | 0.0 | 1.0 | 0.00 | 0.01 | 0.01 | 80 | 1010.2 |
| 20260510041531 | 76 | 0 | 0.0 | 1.0 | 0.00 | 0.01 | 0.01 | 79 | 1010.3 |
| 20260510040033 | 77 | 0 | 0.0 | 0.0 | 0.00 | 0.01 | 0.01 | 78 | 1010.1 |
| 20260510034535 | 77 | 0 | 0.0 | 0.0 | 0.00 | 0.01 | 0.01 | 77 | 1010.1 |
| 20260510033032 | 78 | 0 | 0.0 | 1.0 | 0.00 | 0.01 | 0.01 | 76 | 1010.0 |
| 20260510031534 | 78 | 0 | 0.0 | 0.0 | 0.00 | 0.01 | 0.01 | 73 | 1009.8 |
| 20260510030032 | 78 | 0 | 0.0 | 0.0 | 0.00 | 0.01 | 0.01 | 71 | 1009.5 |
| 20260510024538 | 79 | 0 | 0.0 | 0.0 | 0.00 | 0.01 | 0.01 | 70 | 1009.3 |
| 20260510023033 | 79 | 207 | 0.0 | 1.0 | 0.00 | 0.01 | 0.01 | 67 | 1009.1 |
| 20260510021540 | 79 | 0 | 0.0 | 0.0 | 0.00 | 0.01 | 0.01 | 65 | 1009.0 |
| 20260510020040 | 80 | 0 | 0.0 | 2.0 | 0.00 | 0.01 | 0.01 | 63 | 1008.6 |
| 20260510014537 | 81 | 0 | 0.0 | 0.0 | 0.00 | 0.01 | 0.01 | 62 | 1008.5 |
| 20260510013033 | 82 | 0 | 0.0 | 1.0 | 0.00 | 0.01 | 0.01 | 60 | 1008.5 |
| 20260510011532 | 82 | 0 | 0.0 | 1.0 | 0.00 | 0.01 | 0.01 | 58 | 1008.3 |
| 20260510010039 | 83 | 0 | 0.0 | 1.0 | 0.00 | 0.01 | 0.01 | 56 | 1008.2 |
| 20260510004540 | 84 | 0 | 0.0 | 2.0 | 0.00 | 0.01 | 0.01 | 53 | 1008.1 |
| 20260510003032 | 85 | 246 | 0.0 | 1.0 | 0.00 | 0.01 | 0.01 | 50 | 1008.0 |
| 20260510001533 | 86 | 0 | 0.0 | 2.0 | 0.00 | 0.01 | 0.01 | 47 | 1007.8 |
| 20260510000034 | 88 | 0 | 0.0 | 4.0 | 0.00 | 0.01 | 0.01 | 48 | 1007.6 |